This is the latest recevied weather packets stored in our database for station/object KC4JIR. If no packets are shown the sender has not sent any weather packets the latest 10 day(s).
| Time | Temp. | Humidity | Pressure | Rain* | Wind** | Luminosity | Snow |
|---|---|---|---|---|---|---|---|
| 1778108324 | 27.22° C | 63% | 1011.1 hPa | 0 mm | - | 19 W/m² | - |
| 1778108022 | 27.78° C | 61% | 1010.7 hPa | 0 mm | - | 21 W/m² | - |
| 1778107719 | 27.78° C | 61% | 1010.7 hPa | 0 mm | - | 23 W/m² | - |
| 1778107416 | 27.78° C | 62% | 1010.5 hPa | 0 mm | - | 32 W/m² | - |
| 1778107113 | 28.33° C | 59% | 1010.5 hPa | 0 mm | - | 57 W/m² | - |
| 1778106808 | 28.33° C | 58% | 1010.6 hPa | 0 mm | - | 61 W/m² | - |
| 1778106505 | 28.33° C | 58% | 1010.8 hPa | 0 mm | - | 72 W/m² | - |
| 1778106201 | 28.33° C | 60% | 1010 hPa | 0 mm | - | 72 W/m² | - |
| 1778105899 | 28.33° C | 59% | 1010.4 hPa | 0 mm | - | 87 W/m² | - |
| 1778105596 | 28.33° C | 58% | 1010.4 hPa | 0 mm | - | 97 W/m² | - |
| 1778105293 | 28.33° C | 57% | 1010.5 hPa | 0 mm | - | 108 W/m² | - |
| 1778104988 | 28.89° C | 59% | 1010.5 hPa | 0 mm | - | 114 W/m² | - |
| 1778104685 | 28.89° C | 57% | 1010.4 hPa | 0 mm | - | 111 W/m² | - |
| 1778104381 | 28.89° C | 56% | 1010.5 hPa | 0 mm | - | 103 W/m² | - |
| 1778104077 | 28.89° C | 57% | 1010.6 hPa | 0 mm | - | 104 W/m² | - |
| 1778103774 | 28.89° C | 57% | 1010.6 hPa | 0 mm | - | 114 W/m² | - |
| 1778103473 | 29.44° C | 55% | 1010.4 hPa | 0 mm | - | 127 W/m² | - |
| 1778103169 | 30° C | 53% | 1010.7 hPa | 0 mm | - | 333 W/m² | - |
| 1778102866 | 30° C | 53% | 1010.7 hPa | 0 mm | - | 333 W/m² | - |
| 1778102562 | 30° C | 53% | 1010.4 hPa | 0 mm | - | 333 W/m² | - |
| 1778101966 | 30° C | 51% | 1011.2 hPa | 0 mm | - | 326 W/m² | - |
| 1778101663 | 30° C | 51% | 1011.2 hPa | 0 mm | - | 326 W/m² | - |
| 1778101360 | 30° C | 52% | 1011.1 hPa | 0 mm | - | 396 W/m² | - |
| 1778101057 | 30.56° C | 49% | 1011.2 hPa | 0 mm | - | 487 W/m² | - |
| 1778100753 | 29.44° C | 53% | 1011.3 hPa | 0 mm | - | 325 W/m² | - |
* Rain latest hour (hover to see other rain measurements)
** Current wind speed in m/s (hover to see current wind gust speed)